sensor_id;sensor_type;location;lat;lon;timestamp;P1;durP1;ratioP1;P2;durP2;ratioP2
19341;SDS011;9807;48.258;12.690;2022-12-24T00:01:29;1.13;;;0.73;;
19341;SDS011;9807;48.258;12.690;2022-12-24T00:03:55;3.23;;;0.90;;
19341;SDS011;9807;48.258;12.690;2022-12-24T00:06:21;0.83;;;0.80;;
19341;SDS011;9807;48.258;12.690;2022-12-24T00:08:48;3.57;;;0.87;;
19341;SDS011;9807;48.258;12.690;2022-12-24T00:11:14;2.40;;;0.87;;
19341;SDS011;9807;48.258;12.690;2022-12-24T00:13:40;1.57;;;1.00;;
19341;SDS011;9807;48.258;12.690;2022-12-24T00:16:06;0.87;;;0.70;;
19341;SDS011;9807;48.258;12.690;2022-12-24T00:18:32;0.97;;;0.87;;
19341;SDS011;9807;48.258;12.690;2022-12-24T00:21:00;1.37;;;0.80;;
19341;SDS011;9807;48.258;12.690;2022-12-24T00:23:28;1.30;;;0.90;;
19341;SDS011;9807;48.258;12.690;2022-12-24T00:25:53;1.00;;;0.80;;
19341;SDS011;9807;48.258;12.690;2022-12-24T00:28:20;2.23;;;0.93;;
19341;SDS011;9807;48.258;12.690;2022-12-24T00:30:46;2.63;;;1.07;;
19341;SDS011;9807;48.258;12.690;2022-12-24T00:33:12;2.00;;;0.80;;
19341;SDS011;9807;48.258;12.690;2022-12-24T00:35:38;1.90;;;0.90;;
19341;SDS011;9807;48.258;12.690;2022-12-24T00:38:04;2.87;;;0.90;;
19341;SDS011;9807;48.258;12.690;2022-12-24T00:40:31;3.70;;;0.80;;
19341;SDS011;9807;48.258;12.690;2022-12-24T00:42:57;3.27;;;1.00;;
19341;SDS011;9807;48.258;12.690;2022-12-24T00:45:23;1.80;;;0.70;;
19341;SDS011;9807;48.258;12.690;2022-12-24T00:47:51;0.90;;;0.80;;
19341;SDS011;9807;48.258;12.690;2022-12-24T00:50:17;0.73;;;0.73;;
19341;SDS011;9807;48.258;12.690;2022-12-24T00:52:43;0.67;;;0.67;;
19341;SDS011;9807;48.258;12.690;2022-12-24T00:55:09;1.17;;;0.80;;
19341;SDS011;9807;48.258;12.690;2022-12-24T00:57:34;4.00;;;0.80;;
19341;SDS011;9807;48.258;12.690;2022-12-24T01:00:00;1.77;;;0.73;;
19341;SDS011;9807;48.258;12.690;2022-12-24T01:02:26;3.13;;;0.93;;
19341;SDS011;9807;48.258;12.690;2022-12-24T01:04:51;1.53;;;0.80;;
19341;SDS011;9807;48.258;12.690;2022-12-24T01:07:36;3.73;;;0.93;;
19341;SDS011;9807;48.258;12.690;2022-12-24T01:10:03;2.33;;;0.90;;
19341;SDS011;9807;48.258;12.690;2022-12-24T01:12:30;0.87;;;0.60;;
19341;SDS011;9807;48.258;12.690;2022-12-24T01:14:55;0.83;;;0.60;;
19341;SDS011;9807;48.258;12.690;2022-12-24T01:17:21;3.07;;;0.90;;
19341;SDS011;9807;48.258;12.690;2022-12-24T01:19:47;1.57;;;0.90;;
19341;SDS011;9807;48.258;12.690;2022-12-24T01:22:13;0.83;;;0.60;;
19341;SDS011;9807;48.258;12.690;2022-12-24T01:24:39;2.53;;;0.80;;
19341;SDS011;9807;48.258;12.690;2022-12-24T01:27:06;1.53;;;0.70;;
19341;SDS011;9807;48.258;12.690;2022-12-24T01:29:31;2.43;;;0.90;;
19341;SDS011;9807;48.258;12.690;2022-12-24T01:32:00;1.30;;;0.70;;
19341;SDS011;9807;48.258;12.690;2022-12-24T01:34:26;1.03;;;0.73;;
19341;SDS011;9807;48.258;12.690;2022-12-24T01:36:51;3.00;;;1.07;;
19341;SDS011;9807;48.258;12.690;2022-12-24T01:39:17;2.73;;;0.97;;
19341;SDS011;9807;48.258;12.690;2022-12-24T01:41:42;2.17;;;1.00;;
19341;SDS011;9807;48.258;12.690;2022-12-24T01:44:28;3.57;;;0.73;;
19341;SDS011;9807;48.258;12.690;2022-12-24T01:47:15;6.53;;;1.37;;
19341;SDS011;9807;48.258;12.690;2022-12-24T01:50:12;3.33;;;0.70;;
19341;SDS011;9807;48.258;12.690;2022-12-24T01:52:42;1.20;;;0.70;;
19341;SDS011;9807;48.258;12.690;2022-12-24T01:55:09;0.97;;;0.77;;
19341;SDS011;9807;48.258;12.690;2022-12-24T01:57:50;2.50;;;0.80;;
19341;SDS011;9807;48.258;12.690;2022-12-24T02:00:19;6.17;;;1.30;;
19341;SDS011;9807;48.258;12.690;2022-12-24T02:02:55;2.47;;;0.80;;
19341;SDS011;9807;48.258;12.690;2022-12-24T02:07:55;1.27;;;0.70;;
19341;SDS011;9807;48.258;12.690;2022-12-24T02:10:23;3.87;;;1.00;;
19341;SDS011;9807;48.258;12.690;2022-12-24T02:12:49;4.63;;;1.30;;
19341;SDS011;9807;48.258;12.690;2022-12-24T02:15:16;4.40;;;1.13;;
19341;SDS011;9807;48.258;12.690;2022-12-24T02:23:41;1.80;;;0.87;;
19341;SDS011;9807;48.258;12.690;2022-12-24T02:29:18;2.00;;;0.80;;
19341;SDS011;9807;48.258;12.690;2022-12-24T02:32:09;3.40;;;0.80;;
19341;SDS011;9807;48.258;12.690;2022-12-24T02:34:57;2.70;;;0.93;;
19341;SDS011;9807;48.258;12.690;2022-12-24T02:37:37;3.17;;;1.00;;
19341;SDS011;9807;48.258;12.690;2022-12-24T02:42:43;2.33;;;0.93;;
19341;SDS011;9807;48.258;12.690;2022-12-24T02:45:14;4.93;;;1.30;;
19341;SDS011;9807;48.258;12.690;2022-12-24T02:47:49;2.10;;;0.90;;
19341;SDS011;9807;48.258;12.690;2022-12-24T02:50:17;4.80;;;1.00;;
19341;SDS011;9807;48.258;12.690;2022-12-24T02:52:45;3.37;;;0.97;;
19341;SDS011;9807;48.258;12.690;2022-12-24T02:55:13;5.60;;;1.10;;
19341;SDS011;9807;48.258;12.690;2022-12-24T02:57:49;1.43;;;0.90;;
19341;SDS011;9807;48.258;12.690;2022-12-24T03:00:21;0.83;;;0.67;;
19341;SDS011;9807;48.258;12.690;2022-12-24T03:07:56;1.43;;;0.90;;
19341;SDS011;9807;48.258;12.690;2022-12-24T03:10:35;5.07;;;1.30;;
19341;SDS011;9807;48.258;12.690;2022-12-24T03:13:15;7.43;;;1.47;;
19341;SDS011;9807;48.258;12.690;2022-12-24T03:15:43;5.27;;;1.53;;
19341;SDS011;9807;48.258;12.690;2022-12-24T03:18:11;5.97;;;1.40;;
19341;SDS011;9807;48.258;12.690;2022-12-24T03:20:48;5.13;;;1.20;;
19341;SDS011;9807;48.258;12.690;2022-12-24T03:23:38;6.33;;;1.50;;
19341;SDS011;9807;48.258;12.690;2022-12-24T03:26:05;2.27;;;1.13;;
19341;SDS011;9807;48.258;12.690;2022-12-24T03:28:33;5.63;;;1.20;;
19341;SDS011;9807;48.258;12.690;2022-12-24T03:31:02;2.13;;;1.17;;
19341;SDS011;9807;48.258;12.690;2022-12-24T03:33:29;3.57;;;1.47;;
19341;SDS011;9807;48.258;12.690;2022-12-24T03:35:55;2.67;;;1.23;;
19341;SDS011;9807;48.258;12.690;2022-12-24T03:38:21;4.53;;;1.20;;
19341;SDS011;9807;48.258;12.690;2022-12-24T03:40:47;3.07;;;1.27;;
19341;SDS011;9807;48.258;12.690;2022-12-24T03:43:12;2.47;;;1.60;;
19341;SDS011;9807;48.258;12.690;2022-12-24T03:45:38;3.37;;;1.60;;
19341;SDS011;9807;48.258;12.690;2022-12-24T03:48:04;3.37;;;1.37;;
19341;SDS011;9807;48.258;12.690;2022-12-24T03:50:30;2.60;;;1.40;;
19341;SDS011;9807;48.258;12.690;2022-12-24T03:52:56;4.57;;;1.73;;
19341;SDS011;9807;48.258;12.690;2022-12-24T03:55:22;5.47;;;1.60;;
19341;SDS011;9807;48.258;12.690;2022-12-24T03:57:48;2.30;;;1.60;;
19341;SDS011;9807;48.258;12.690;2022-12-24T04:00:14;3.53;;;1.30;;
19341;SDS011;9807;48.258;12.690;2022-12-24T04:02:40;7.00;;;1.30;;
19341;SDS011;9807;48.258;12.690;2022-12-24T04:05:06;1.93;;;1.00;;
19341;SDS011;9807;48.258;12.690;2022-12-24T04:07:32;2.03;;;1.20;;
19341;SDS011;9807;48.258;12.690;2022-12-24T04:09:58;1.73;;;0.97;;
19341;SDS011;9807;48.258;12.690;2022-12-24T04:12:24;1.13;;;0.90;;
19341;SDS011;9807;48.258;12.690;2022-12-24T04:14:50;1.13;;;1.03;;
19341;SDS011;9807;48.258;12.690;2022-12-24T04:17:15;3.73;;;1.10;;
19341;SDS011;9807;48.258;12.690;2022-12-24T04:19:41;4.97;;;1.20;;
19341;SDS011;9807;48.258;12.690;2022-12-24T04:22:07;2.30;;;1.33;;
19341;SDS011;9807;48.258;12.690;2022-12-24T04:24:33;2.03;;;1.07;;
19341;SDS011;9807;48.258;12.690;2022-12-24T04:26:58;2.23;;;1.20;;
19341;SDS011;9807;48.258;12.690;2022-12-24T04:29:24;1.27;;;1.13;;
19341;SDS011;9807;48.258;12.690;2022-12-24T04:31:50;3.63;;;1.00;;
19341;SDS011;9807;48.258;12.690;2022-12-24T04:34:15;3.40;;;1.00;;
19341;SDS011;9807;48.258;12.690;2022-12-24T04:36:41;1.60;;;1.40;;
19341;SDS011;9807;48.258;12.690;2022-12-24T04:39:06;1.20;;;0.90;;
19341;SDS011;9807;48.258;12.690;2022-12-24T04:41:32;3.67;;;1.17;;
19341;SDS011;9807;48.258;12.690;2022-12-24T04:43:58;2.90;;;1.10;;
19341;SDS011;9807;48.258;12.690;2022-12-24T04:46:27;4.77;;;1.20;;
19341;SDS011;9807;48.258;12.690;2022-12-24T04:48:54;3.30;;;1.20;;
19341;SDS011;9807;48.258;12.690;2022-12-24T04:51:21;2.20;;;1.20;;
19341;SDS011;9807;48.258;12.690;2022-12-24T04:53:48;3.87;;;1.23;;
19341;SDS011;9807;48.258;12.690;2022-12-24T04:56:18;2.17;;;1.23;;
19341;SDS011;9807;48.258;12.690;2022-12-24T04:58:48;3.53;;;1.20;;
19341;SDS011;9807;48.258;12.690;2022-12-24T05:01:16;6.20;;;1.30;;
19341;SDS011;9807;48.258;12.690;2022-12-24T05:03:45;4.17;;;1.30;;
19341;SDS011;9807;48.258;12.690;2022-12-24T05:06:11;1.13;;;1.00;;
19341;SDS011;9807;48.258;12.690;2022-12-24T05:08:39;4.73;;;1.20;;
19341;SDS011;9807;48.258;12.690;2022-12-24T05:11:05;2.73;;;1.20;;
19341;SDS011;9807;48.258;12.690;2022-12-24T05:13:32;6.07;;;1.30;;
19341;SDS011;9807;48.258;12.690;2022-12-24T05:15:58;3.73;;;1.27;;
19341;SDS011;9807;48.258;12.690;2022-12-24T05:18:24;5.63;;;1.23;;
19341;SDS011;9807;48.258;12.690;2022-12-24T05:20:50;3.43;;;1.33;;
19341;SDS011;9807;48.258;12.690;2022-12-24T05:23:16;1.70;;;1.10;;
19341;SDS011;9807;48.258;12.690;2022-12-24T05:26:02;3.47;;;1.20;;
19341;SDS011;9807;48.258;12.690;2022-12-24T05:28:47;3.67;;;1.20;;
19341;SDS011;9807;48.258;12.690;2022-12-24T05:31:17;4.07;;;1.57;;
19341;SDS011;9807;48.258;12.690;2022-12-24T05:33:43;2.60;;;1.50;;
19341;SDS011;9807;48.258;12.690;2022-12-24T05:36:09;4.77;;;1.90;;
19341;SDS011;9807;48.258;12.690;2022-12-24T05:38:35;2.93;;;1.20;;
19341;SDS011;9807;48.258;12.690;2022-12-24T05:41:01;3.30;;;1.80;;
19341;SDS011;9807;48.258;12.690;2022-12-24T05:43:27;4.30;;;1.10;;
19341;SDS011;9807;48.258;12.690;2022-12-24T05:45:56;3.53;;;1.20;;
19341;SDS011;9807;48.258;12.690;2022-12-24T05:48:26;3.13;;;1.00;;
19341;SDS011;9807;48.258;12.690;2022-12-24T05:50:52;4.17;;;1.10;;
19341;SDS011;9807;48.258;12.690;2022-12-24T05:53:19;3.77;;;1.50;;
19341;SDS011;9807;48.258;12.690;2022-12-24T05:55:44;5.23;;;1.20;;
19341;SDS011;9807;48.258;12.690;2022-12-24T05:58:13;3.63;;;1.13;;
19341;SDS011;9807;48.258;12.690;2022-12-24T06:00:39;3.53;;;1.10;;
19341;SDS011;9807;48.258;12.690;2022-12-24T06:03:05;4.97;;;1.10;;
19341;SDS011;9807;48.258;12.690;2022-12-24T06:05:33;7.87;;;1.10;;
19341;SDS011;9807;48.258;12.690;2022-12-24T06:07:59;2.80;;;1.00;;
19341;SDS011;9807;48.258;12.690;2022-12-24T06:10:24;2.27;;;0.90;;
19341;SDS011;9807;48.258;12.690;2022-12-24T06:12:50;2.53;;;1.13;;
19341;SDS011;9807;48.258;12.690;2022-12-24T06:15:16;4.47;;;0.93;;
19341;SDS011;9807;48.258;12.690;2022-12-24T06:17:41;4.93;;;1.10;;
19341;SDS011;9807;48.258;12.690;2022-12-24T06:20:07;2.23;;;0.90;;
19341;SDS011;9807;48.258;12.690;2022-12-24T06:22:33;3.87;;;1.20;;
19341;SDS011;9807;48.258;12.690;2022-12-24T06:24:59;2.97;;;1.10;;
19341;SDS011;9807;48.258;12.690;2022-12-24T06:27:25;2.77;;;1.20;;
19341;SDS011;9807;48.258;12.690;2022-12-24T06:29:50;4.27;;;1.23;;
19341;SDS011;9807;48.258;12.690;2022-12-24T06:32:16;4.20;;;1.30;;
19341;SDS011;9807;48.258;12.690;2022-12-24T06:34:41;6.50;;;1.33;;
19341;SDS011;9807;48.258;12.690;2022-12-24T06:37:07;3.37;;;1.00;;
19341;SDS011;9807;48.258;12.690;2022-12-24T06:39:42;3.63;;;1.13;;
19341;SDS011;9807;48.258;12.690;2022-12-24T06:42:11;2.97;;;1.60;;
19341;SDS011;9807;48.258;12.690;2022-12-24T06:44:38;1.47;;;1.20;;
19341;SDS011;9807;48.258;12.690;2022-12-24T06:47:04;1.77;;;1.10;;
19341;SDS011;9807;48.258;12.690;2022-12-24T06:49:29;2.53;;;1.10;;
19341;SDS011;9807;48.258;12.690;2022-12-24T06:51:55;3.77;;;1.40;;
19341;SDS011;9807;48.258;12.690;2022-12-24T06:54:20;6.30;;;1.87;;
19341;SDS011;9807;48.258;12.690;2022-12-24T06:56:46;9.30;;;3.13;;
19341;SDS011;9807;48.258;12.690;2022-12-24T06:59:12;6.53;;;1.60;;
19341;SDS011;9807;48.258;12.690;2022-12-24T07:01:37;9.70;;;2.07;;
19341;SDS011;9807;48.258;12.690;2022-12-24T07:04:03;4.63;;;2.00;;
19341;SDS011;9807;48.258;12.690;2022-12-24T07:06:29;6.63;;;2.57;;
19341;SDS011;9807;48.258;12.690;2022-12-24T07:08:54;8.90;;;2.60;;
19341;SDS011;9807;48.258;12.690;2022-12-24T07:11:20;7.00;;;2.67;;
19341;SDS011;9807;48.258;12.690;2022-12-24T07:13:47;6.73;;;1.73;;
19341;SDS011;9807;48.258;12.690;2022-12-24T07:16:13;10.00;;;2.20;;
19341;SDS011;9807;48.258;12.690;2022-12-24T07:18:39;6.33;;;1.50;;
19341;SDS011;9807;48.258;12.690;2022-12-24T07:21:05;8.43;;;1.73;;
19341;SDS011;9807;48.258;12.690;2022-12-24T07:23:31;7.40;;;1.83;;
19341;SDS011;9807;48.258;12.690;2022-12-24T07:26:07;6.00;;;1.37;;
19341;SDS011;9807;48.258;12.690;2022-12-24T07:28:34;3.13;;;1.60;;
19341;SDS011;9807;48.258;12.690;2022-12-24T07:31:00;6.53;;;1.70;;
19341;SDS011;9807;48.258;12.690;2022-12-24T07:33:26;8.17;;;1.83;;
19341;SDS011;9807;48.258;12.690;2022-12-24T07:36:02;5.07;;;1.93;;
19341;SDS011;9807;48.258;12.690;2022-12-24T07:38:29;4.20;;;1.57;;
19341;SDS011;9807;48.258;12.690;2022-12-24T07:40:55;5.27;;;1.50;;
19341;SDS011;9807;48.258;12.690;2022-12-24T07:43:22;6.90;;;2.00;;
19341;SDS011;9807;48.258;12.690;2022-12-24T07:45:48;7.37;;;2.07;;
19341;SDS011;9807;48.258;12.690;2022-12-24T07:48:14;8.00;;;2.10;;
19341;SDS011;9807;48.258;12.690;2022-12-24T07:50:40;9.10;;;2.03;;
19341;SDS011;9807;48.258;12.690;2022-12-24T07:53:06;8.30;;;2.30;;
19341;SDS011;9807;48.258;12.690;2022-12-24T07:55:32;18.00;;;7.97;;
19341;SDS011;9807;48.258;12.690;2022-12-24T07:58:00;6.97;;;3.17;;
19341;SDS011;9807;48.258;12.690;2022-12-24T08:00:26;8.73;;;3.53;;
19341;SDS011;9807;48.258;12.690;2022-12-24T08:02:52;12.93;;;5.63;;
19341;SDS011;9807;48.258;12.690;2022-12-24T08:05:17;8.83;;;2.77;;
19341;SDS011;9807;48.258;12.690;2022-12-24T08:07:46;11.20;;;2.60;;
19341;SDS011;9807;48.258;12.690;2022-12-24T08:10:12;13.63;;;2.67;;
19341;SDS011;9807;48.258;12.690;2022-12-24T08:12:37;8.40;;;3.37;;
19341;SDS011;9807;48.258;12.690;2022-12-24T08:15:03;6.33;;;2.40;;
19341;SDS011;9807;48.258;12.690;2022-12-24T08:17:29;7.07;;;2.43;;
19341;SDS011;9807;48.258;12.690;2022-12-24T08:19:55;7.10;;;3.00;;
19341;SDS011;9807;48.258;12.690;2022-12-24T08:22:20;7.27;;;2.60;;
19341;SDS011;9807;48.258;12.690;2022-12-24T08:24:46;7.30;;;2.50;;
19341;SDS011;9807;48.258;12.690;2022-12-24T08:27:12;6.90;;;2.40;;
19341;SDS011;9807;48.258;12.690;2022-12-24T08:29:37;8.03;;;3.20;;
19341;SDS011;9807;48.258;12.690;2022-12-24T08:32:03;9.50;;;2.97;;
19341;SDS011;9807;48.258;12.690;2022-12-24T08:34:29;6.90;;;2.70;;
19341;SDS011;9807;48.258;12.690;2022-12-24T08:36:54;13.63;;;3.00;;
19341;SDS011;9807;48.258;12.690;2022-12-24T08:39:20;8.17;;;2.87;;
19341;SDS011;9807;48.258;12.690;2022-12-24T08:41:46;8.67;;;3.53;;
19341;SDS011;9807;48.258;12.690;2022-12-24T08:44:11;9.83;;;3.77;;
19341;SDS011;9807;48.258;12.690;2022-12-24T08:46:37;8.03;;;3.03;;
19341;SDS011;9807;48.258;12.690;2022-12-24T08:49:06;7.20;;;3.10;;
19341;SDS011;9807;48.258;12.690;2022-12-24T08:51:31;7.53;;;2.47;;
19341;SDS011;9807;48.258;12.690;2022-12-24T08:53:57;6.27;;;2.63;;
19341;SDS011;9807;48.258;12.690;2022-12-24T08:56:26;7.00;;;2.93;;
19341;SDS011;9807;48.258;12.690;2022-12-24T08:58:52;7.77;;;3.40;;
19341;SDS011;9807;48.258;12.690;2022-12-24T09:01:18;10.43;;;5.57;;
19341;SDS011;9807;48.258;12.690;2022-12-24T09:03:45;8.90;;;3.67;;
19341;SDS011;9807;48.258;12.690;2022-12-24T09:06:11;18.10;;;9.70;;
19341;SDS011;9807;48.258;12.690;2022-12-24T09:08:37;25.47;;;15.87;;
19341;SDS011;9807;48.258;12.690;2022-12-24T09:11:09;13.63;;;7.40;;
19341;SDS011;9807;48.258;12.690;2022-12-24T09:13:38;11.50;;;6.50;;
19341;SDS011;9807;48.258;12.690;2022-12-24T09:16:04;12.57;;;6.30;;
19341;SDS011;9807;48.258;12.690;2022-12-24T09:18:31;11.93;;;4.10;;
19341;SDS011;9807;48.258;12.690;2022-12-24T09:21:00;8.33;;;2.43;;
19341;SDS011;9807;48.258;12.690;2022-12-24T09:23:28;10.63;;;2.70;;
19341;SDS011;9807;48.258;12.690;2022-12-24T09:25:54;7.80;;;2.20;;
19341;SDS011;9807;48.258;12.690;2022-12-24T09:28:20;6.53;;;2.67;;
19341;SDS011;9807;48.258;12.690;2022-12-24T09:30:59;9.50;;;2.63;;
19341;SDS011;9807;48.258;12.690;2022-12-24T09:33:30;7.23;;;2.90;;
19341;SDS011;9807;48.258;12.690;2022-12-24T09:36:03;6.07;;;2.60;;
19341;SDS011;9807;48.258;12.690;2022-12-24T09:38:29;3.60;;;1.87;;
19341;SDS011;9807;48.258;12.690;2022-12-24T09:40:56;3.80;;;1.60;;
19341;SDS011;9807;48.258;12.690;2022-12-24T09:43:25;7.67;;;1.70;;
19341;SDS011;9807;48.258;12.690;2022-12-24T09:48:38;4.13;;;0.93;;
19341;SDS011;9807;48.258;12.690;2022-12-24T09:51:14;2.73;;;1.40;;
19341;SDS011;9807;48.258;12.690;2022-12-24T09:54:06;2.23;;;1.30;;
19341;SDS011;9807;48.258;12.690;2022-12-24T09:56:45;2.63;;;1.20;;
19341;SDS011;9807;48.258;12.690;2022-12-24T09:59:25;3.33;;;1.40;;
19341;SDS011;9807;48.258;12.690;2022-12-24T10:02:08;4.27;;;1.50;;
19341;SDS011;9807;48.258;12.690;2022-12-24T10:04:35;3.97;;;1.63;;
19341;SDS011;9807;48.258;12.690;2022-12-24T10:07:05;4.73;;;1.80;;
19341;SDS011;9807;48.258;12.690;2022-12-24T10:09:52;4.07;;;2.10;;
19341;SDS011;9807;48.258;12.690;2022-12-24T10:12:49;7.67;;;2.20;;
19341;SDS011;9807;48.258;12.690;2022-12-24T10:15:29;3.60;;;1.83;;
19341;SDS011;9807;48.258;12.690;2022-12-24T10:21:12;3.63;;;1.73;;
19341;SDS011;9807;48.258;12.690;2022-12-24T10:23:48;2.80;;;1.40;;
19341;SDS011;9807;48.258;12.690;2022-12-24T10:26:42;3.43;;;1.63;;
19341;SDS011;9807;48.258;12.690;2022-12-24T10:29:17;4.67;;;1.10;;
19341;SDS011;9807;48.258;12.690;2022-12-24T10:31:59;1.57;;;1.00;;
19341;SDS011;9807;48.258;12.690;2022-12-24T10:34:27;1.93;;;0.90;;
19341;SDS011;9807;48.258;12.690;2022-12-24T10:37:00;4.23;;;1.00;;
19341;SDS011;9807;48.258;12.690;2022-12-24T10:39:28;3.40;;;0.90;;
19341;SDS011;9807;48.258;12.690;2022-12-24T10:41:55;4.63;;;1.13;;
19341;SDS011;9807;48.258;12.690;2022-12-24T10:44:24;3.63;;;1.03;;
19341;SDS011;9807;48.258;12.690;2022-12-24T10:46:53;2.03;;;0.80;;
19341;SDS011;9807;48.258;12.690;2022-12-24T10:49:23;2.93;;;1.10;;
19341;SDS011;9807;48.258;12.690;2022-12-24T10:51:59;4.83;;;1.10;;
19341;SDS011;9807;48.258;12.690;2022-12-24T10:54:29;1.77;;;0.90;;
19341;SDS011;9807;48.258;12.690;2022-12-24T10:57:02;1.53;;;0.93;;
19341;SDS011;9807;48.258;12.690;2022-12-24T10:59:33;3.97;;;1.10;;
19341;SDS011;9807;48.258;12.690;2022-12-24T11:04:56;3.63;;;0.90;;
19341;SDS011;9807;48.258;12.690;2022-12-24T11:07:26;3.33;;;1.00;;
19341;SDS011;9807;48.258;12.690;2022-12-24T11:09:57;4.17;;;0.90;;
19341;SDS011;9807;48.258;12.690;2022-12-24T11:12:29;5.30;;;1.20;;
19341;SDS011;9807;48.258;12.690;2022-12-24T11:15:02;4.40;;;1.03;;
19341;SDS011;9807;48.258;12.690;2022-12-24T11:17:31;3.00;;;1.00;;
19341;SDS011;9807;48.258;12.690;2022-12-24T11:20:00;3.77;;;1.30;;
19341;SDS011;9807;48.258;12.690;2022-12-24T11:22:28;3.13;;;1.47;;
19341;SDS011;9807;48.258;12.690;2022-12-24T11:29:53;3.23;;;1.00;;
19341;SDS011;9807;48.258;12.690;2022-12-24T11:32:35;2.07;;;1.03;;
19341;SDS011;9807;48.258;12.690;2022-12-24T11:35:04;2.63;;;1.17;;
19341;SDS011;9807;48.258;12.690;2022-12-24T11:37:31;2.90;;;1.30;;
19341;SDS011;9807;48.258;12.690;2022-12-24T11:40:00;2.80;;;1.00;;
19341;SDS011;9807;48.258;12.690;2022-12-24T11:42:34;3.43;;;0.90;;
19341;SDS011;9807;48.258;12.690;2022-12-24T11:45:06;2.93;;;1.10;;
19341;SDS011;9807;48.258;12.690;2022-12-24T11:47:42;2.80;;;1.13;;
19341;SDS011;9807;48.258;12.690;2022-12-24T11:50:22;6.43;;;1.00;;
19341;SDS011;9807;48.258;12.690;2022-12-24T12:00:49;2.03;;;0.80;;
19341;SDS011;9807;48.258;12.690;2022-12-24T12:03:38;4.50;;;0.90;;
19341;SDS011;9807;48.258;12.690;2022-12-24T12:08:58;4.13;;;0.93;;
19341;SDS011;9807;48.258;12.690;2022-12-24T12:11:30;2.63;;;0.80;;
19341;SDS011;9807;48.258;12.690;2022-12-24T12:13:58;2.97;;;0.90;;
19341;SDS011;9807;48.258;12.690;2022-12-24T12:19:21;2.40;;;1.00;;
19341;SDS011;9807;48.258;12.690;2022-12-24T12:21:50;4.77;;;1.00;;
19341;SDS011;9807;48.258;12.690;2022-12-24T12:24:18;5.07;;;1.00;;
19341;SDS011;9807;48.258;12.690;2022-12-24T12:30:02;3.47;;;0.90;;
19341;SDS011;9807;48.258;12.690;2022-12-24T12:33:21;2.63;;;0.93;;
19341;SDS011;9807;48.258;12.690;2022-12-24T12:35:39;0.97;;;0.70;;
19341;SDS011;9807;48.258;12.690;2022-12-24T12:38:26;4.43;;;1.00;;
19341;SDS011;9807;48.258;12.690;2022-12-24T12:44:01;3.97;;;1.10;;
19341;SDS011;9807;48.258;12.690;2022-12-24T12:46:50;4.17;;;1.10;;
19341;SDS011;9807;48.258;12.690;2022-12-24T12:49:36;2.10;;;0.80;;
19341;SDS011;9807;48.258;12.690;2022-12-24T12:57:59;2.70;;;0.90;;
19341;SDS011;9807;48.258;12.690;2022-12-24T13:00:29;2.40;;;1.10;;
19341;SDS011;9807;48.258;12.690;2022-12-24T13:03:13;4.20;;;1.10;;
19341;SDS011;9807;48.258;12.690;2022-12-24T13:22:03;5.07;;;1.20;;
19341;SDS011;9807;48.258;12.690;2022-12-24T13:24:30;2.97;;;1.03;;
19341;SDS011;9807;48.258;12.690;2022-12-24T13:34:48;4.07;;;1.10;;
19341;SDS011;9807;48.258;12.690;2022-12-24T13:37:19;3.70;;;1.10;;
19341;SDS011;9807;48.258;12.690;2022-12-24T13:40:00;2.93;;;1.23;;
19341;SDS011;9807;48.258;12.690;2022-12-24T13:43:14;2.17;;;1.03;;
19341;SDS011;9807;48.258;12.690;2022-12-24T13:47:57;3.33;;;1.10;;
19341;SDS011;9807;48.258;12.690;2022-12-24T13:50:47;3.30;;;1.00;;
19341;SDS011;9807;48.258;12.690;2022-12-24T13:56:35;3.00;;;1.10;;
19341;SDS011;9807;48.258;12.690;2022-12-24T13:58:45;2.23;;;1.00;;
19341;SDS011;9807;48.258;12.690;2022-12-24T14:01:31;4.40;;;1.60;;
19341;SDS011;9807;48.258;12.690;2022-12-24T14:04:03;2.37;;;1.13;;
19341;SDS011;9807;48.258;12.690;2022-12-24T14:06:35;2.73;;;1.40;;
19341;SDS011;9807;48.258;12.690;2022-12-24T14:09:15;4.67;;;1.40;;
19341;SDS011;9807;48.258;12.690;2022-12-24T14:14:29;2.83;;;1.10;;
19341;SDS011;9807;48.258;12.690;2022-12-24T14:16:57;4.07;;;1.10;;
19341;SDS011;9807;48.258;12.690;2022-12-24T14:19:28;2.87;;;1.03;;
19341;SDS011;9807;48.258;12.690;2022-12-24T14:24:54;4.30;;;1.17;;
19341;SDS011;9807;48.258;12.690;2022-12-24T14:27:38;2.60;;;1.50;;
19341;SDS011;9807;48.258;12.690;2022-12-24T14:32:52;3.60;;;1.40;;
19341;SDS011;9807;48.258;12.690;2022-12-24T14:35:19;2.53;;;1.20;;
19341;SDS011;9807;48.258;12.690;2022-12-24T14:37:59;3.23;;;1.10;;
19341;SDS011;9807;48.258;12.690;2022-12-24T14:44:06;2.10;;;1.10;;
19341;SDS011;9807;48.258;12.690;2022-12-24T14:46:53;6.23;;;2.37;;
19341;SDS011;9807;48.258;12.690;2022-12-24T14:52:41;5.17;;;2.30;;
19341;SDS011;9807;48.258;12.690;2022-12-24T14:58:20;5.37;;;2.67;;
19341;SDS011;9807;48.258;12.690;2022-12-24T15:00:57;9.57;;;3.53;;
19341;SDS011;9807;48.258;12.690;2022-12-24T15:03:29;11.57;;;4.73;;
19341;SDS011;9807;48.258;12.690;2022-12-24T15:06:03;6.13;;;3.23;;
19341;SDS011;9807;48.258;12.690;2022-12-24T15:08:35;4.73;;;2.10;;
19341;SDS011;9807;48.258;12.690;2022-12-24T15:11:05;4.17;;;1.90;;
19341;SDS011;9807;48.258;12.690;2022-12-24T15:13:39;3.77;;;2.03;;
19341;SDS011;9807;48.258;12.690;2022-12-24T15:16:09;3.40;;;1.77;;
19341;SDS011;9807;48.258;12.690;2022-12-24T15:21:38;3.00;;;1.70;;
19341;SDS011;9807;48.258;12.690;2022-12-24T15:26:52;3.97;;;1.80;;
19341;SDS011;9807;48.258;12.690;2022-12-24T15:29:20;9.23;;;2.27;;
19341;SDS011;9807;48.258;12.690;2022-12-24T15:31:53;4.13;;;1.90;;
19341;SDS011;9807;48.258;12.690;2022-12-24T15:34:35;3.13;;;1.50;;
19341;SDS011;9807;48.258;12.690;2022-12-24T15:37:04;1.43;;;1.10;;
19341;SDS011;9807;48.258;12.690;2022-12-24T15:40:08;2.63;;;1.50;;
19341;SDS011;9807;48.258;12.690;2022-12-24T15:42:44;2.30;;;1.37;;
19341;SDS011;9807;48.258;12.690;2022-12-24T15:45:20;2.30;;;1.10;;
19341;SDS011;9807;48.258;12.690;2022-12-24T15:47:50;2.13;;;1.00;;
19341;SDS011;9807;48.258;12.690;2022-12-24T15:50:27;2.17;;;1.20;;
19341;SDS011;9807;48.258;12.690;2022-12-24T15:53:21;1.67;;;1.10;;
19341;SDS011;9807;48.258;12.690;2022-12-24T15:56:05;2.07;;;1.30;;
19341;SDS011;9807;48.258;12.690;2022-12-24T15:58:40;4.53;;;2.30;;
19341;SDS011;9807;48.258;12.690;2022-12-24T16:03:33;2.40;;;1.60;;
19341;SDS011;9807;48.258;12.690;2022-12-24T16:06:00;1.87;;;1.13;;
19341;SDS011;9807;48.258;12.690;2022-12-24T16:08:29;2.10;;;1.33;;
19341;SDS011;9807;48.258;12.690;2022-12-24T16:13:56;10.80;;;5.03;;
19341;SDS011;9807;48.258;12.690;2022-12-24T16:16:30;3.47;;;2.20;;
19341;SDS011;9807;48.258;12.690;2022-12-24T16:19:14;3.73;;;1.83;;
19341;SDS011;9807;48.258;12.690;2022-12-24T16:21:55;2.50;;;1.70;;
19341;SDS011;9807;48.258;12.690;2022-12-24T16:24:24;4.57;;;2.70;;
19341;SDS011;9807;48.258;12.690;2022-12-24T16:26:52;11.07;;;3.57;;
19341;SDS011;9807;48.258;12.690;2022-12-24T16:29:19;6.50;;;3.53;;
19341;SDS011;9807;48.258;12.690;2022-12-24T16:31:50;8.10;;;4.60;;
19341;SDS011;9807;48.258;12.690;2022-12-24T16:34:26;7.63;;;4.40;;
19341;SDS011;9807;48.258;12.690;2022-12-24T16:36:53;8.57;;;4.83;;
19341;SDS011;9807;48.258;12.690;2022-12-24T16:39:31;3.03;;;2.17;;
19341;SDS011;9807;48.258;12.690;2022-12-24T16:41:58;3.57;;;1.60;;
19341;SDS011;9807;48.258;12.690;2022-12-24T16:44:44;5.37;;;3.30;;
19341;SDS011;9807;48.258;12.690;2022-12-24T16:47:11;2.87;;;1.80;;
19341;SDS011;9807;48.258;12.690;2022-12-24T16:49:48;3.33;;;1.90;;
19341;SDS011;9807;48.258;12.690;2022-12-24T16:52:19;6.97;;;3.50;;
19341;SDS011;9807;48.258;12.690;2022-12-24T16:54:47;3.03;;;1.80;;
19341;SDS011;9807;48.258;12.690;2022-12-24T16:57:13;2.87;;;1.87;;
19341;SDS011;9807;48.258;12.690;2022-12-24T16:59:39;10.17;;;5.47;;
19341;SDS011;9807;48.258;12.690;2022-12-24T17:02:05;16.70;;;8.93;;
19341;SDS011;9807;48.258;12.690;2022-12-24T17:04:31;18.17;;;10.43;;